Time;durP1;ratioP1;P1;durP2;ratioP2;P2;SDS_P1;SDS_P2;PMS_P1;PMS_P2;Temp;Humidity;BMP_temperature;BMP_pressure;BME280_temperature;BME280_humidity;BME280_pressure;Samples;Min_cycle;Max_cycle;Signal;HPM_P1;HPM_P2
2022/01/28 00:38:14;;;;;;;43.33;21.20;;;;;;;-0.72;78.87;95580.77;1832214;78;20996;-75
2022/01/28 00:40:39;;;;;;;42.30;22.27;;;;;;;-0.76;79.45;95573.74;1832639;78;21397;-75
2022/01/28 00:43:06;;;;;;;48.80;22.57;;;;;;;-0.72;79.53;95572.56;1832514;78;20995;-75
2022/01/28 00:45:33;;;;;;;48.30;23.20;;;;;;;-0.72;79.48;95572.99;1832302;78;20994;-75
2022/01/28 00:48:00;;;;;;;46.93;22.37;;;;;;;-0.82;79.68;95580.09;1832449;78;21470;-75
2022/01/28 00:50:27;;;;;;;44.40;21.47;;;;;;;-0.92;79.70;95575.09;1832309;78;21012;-75
2022/01/28 00:52:53;;;;;;;42.80;19.77;;;;;;;-0.93;79.93;95573.35;1832301;78;21492;-75
2022/01/28 00:55:20;;;;;;;37.70;19.73;;;;;;;-1.00;79.73;95567.55;1832444;78;21007;-75
2022/01/28 00:57:47;;;;;;;42.80;20.63;;;;;;;-1.02;79.99;95553.26;1832162;78;21058;-75
2022/01/28 01:00:15;;;;;;;41.67;21.03;;;;;;;-0.97;80.36;95560.73;1832274;78;21453;-75
2022/01/28 01:02:42;;;;;;;42.43;21.80;;;;;;;-0.93;80.63;95560.40;1832149;78;20995;-75
2022/01/28 01:05:09;;;;;;;41.73;21.97;;;;;;;-1.00;80.32;95554.19;1832284;78;21035;-75
2022/01/28 01:07:36;;;;;;;52.53;24.60;;;;;;;-1.05;80.28;95551.03;1832340;78;20979;-75
2022/01/28 01:10:05;;;;;;;45.70;22.27;;;;;;;-1.04;80.68;95553.63;1832456;78;21007;-75
2022/01/28 01:12:36;;;;;;;43.00;22.07;;;;;;;-0.98;80.73;95538.27;1832355;78;20995;-75
2022/01/28 01:15:01;;;;;;;45.20;21.40;;;;;;;-1.04;81.00;95532.92;1832175;78;21051;-75
2022/01/28 01:20:10;;;;;;;55.57;27.17;;;;;;;-0.94;80.82;95535.32;1831986;78;21023;-75
2022/01/28 01:22:24;;;;;;;59.53;28.13;;;;;;;-0.90;80.71;95539.32;1828370;78;21011;-75
2022/01/28 01:24:59;;;;;;;63.20;29.17;;;;;;;-1.02;80.67;95522.19;1831579;78;21015;-75
2022/01/28 01:27:20;;;;;;;52.93;26.43;;;;;;;-0.99;80.67;95527.86;1829934;78;21020;-75
2022/01/28 01:29:47;;;;;;;61.27;29.03;;;;;;;-1.05;80.06;95516.07;1831775;78;21100;-75
2022/01/28 01:32:16;;;;;;;59.93;26.77;;;;;;;-1.16;80.90;95511.50;1831570;78;21039;-75
2022/01/28 01:34:43;;;;;;;51.00;24.47;;;;;;;-1.21;81.21;95514.79;1831839;78;20984;-75
2022/01/28 01:37:12;;;;;;;55.53;26.90;;;;;;;-1.24;80.93;95509.12;1831423;78;20980;-75
2022/01/28 01:39:41;;;;;;;56.33;27.63;;;;;;;-1.24;81.28;95499.19;1831560;78;21453;-75
2022/01/28 01:42:32;;;;;;;59.57;27.63;;;;;;;-1.20;81.36;95504.91;1831795;78;21521;-75
2022/01/28 01:52:57;;;;;;;59.40;27.23;;;;;;;-1.23;81.86;95460.84;1831880;78;21035;-75
2022/01/28 01:55:24;;;;;;;54.33;24.03;;;;;;;-1.21;81.69;95460.03;1831629;78;21060;-75
2022/01/28 01:57:52;;;;;;;50.23;23.53;;;;;;;-1.21;81.96;95457.84;1831530;78;21017;-75
2022/01/28 02:00:18;;;;;;;49.47;24.23;;;;;;;-1.21;81.95;95452.27;1831494;78;21018;-75
2022/01/28 02:02:48;;;;;;;47.37;23.00;;;;;;;-1.25;82.18;95455.61;1831549;78;21064;-75
2022/01/28 02:05:15;;;;;;;51.90;23.57;;;;;;;-1.20;82.10;95445.37;1831710;78;21051;-75
2022/01/28 02:07:45;;;;;;;33.30;14.67;;;;;;;-1.14;82.49;95439.03;1831234;78;21028;-75
2022/01/28 02:10:14;;;;;;;38.53;20.07;;;;;;;-1.05;82.09;95448.75;1831653;78;21150;-75
2022/01/28 02:12:50;;;;;;;49.83;23.70;;;;;;;-1.12;81.94;95439.95;1831624;78;21524;-75
2022/01/28 02:15:18;;;;;;;45.03;23.70;;;;;;;-1.06;82.05;95440.50;1831231;78;20984;-75
2022/01/28 02:17:45;;;;;;;48.80;23.20;;;;;;;-1.03;81.87;95423.34;1831299;78;20976;-75
2022/01/28 02:20:26;;;;;;;41.40;20.30;;;;;;;-0.94;82.32;95413.17;1832282;78;21000;-75
2022/01/28 02:22:50;;;;;;;53.37;28.60;;;;;;;-0.84;82.08;95419.44;1834478;78;21496;-75
2022/01/28 02:25:24;;;;;;;41.17;21.57;;;;;;;-0.74;81.88;95420.52;1835471;78;20992;-75
2022/01/28 02:27:51;;;;;;;40.63;18.90;;;;;;;-0.74;82.00;95404.55;1763759;81;21050;-75
2022/01/28 02:30:18;;;;;;;31.17;17.50;;;;;;;-0.72;81.48;95391.64;1767923;81;20983;-75
2022/01/28 02:32:47;;;;;;;38.67;19.13;;;;;;;-0.70;81.42;95389.53;1795797;80;20985;-75
2022/01/28 02:35:13;;;;;;;24.60;12.27;;;;;;;-0.66;81.40;95369.33;1795957;80;21061;-75
2022/01/28 02:37:39;;;;;;;30.07;15.43;;;;;;;-0.68;81.36;95363.63;1796054;80;20949;-75
2022/01/28 02:40:08;;;;;;;32.77;16.07;;;;;;;-0.62;81.53;95383.64;1795536;80;21065;-75
2022/01/28 02:42:59;;;;;;;28.27;14.60;;;;;;;-0.57;81.39;95377.70;1795710;80;21466;-75
2022/01/28 02:45:27;;;;;;;18.13;10.50;;;;;;;-0.50;81.55;95374.83;1794778;80;20981;-75
2022/01/28 02:47:58;;;;;;;20.90;10.30;;;;;;;-0.42;81.55;95378.86;1795327;80;20989;-75
2022/01/28 02:50:22;;;;;;;17.40;10.30;;;;;;;-0.29;81.09;95389.49;1794834;80;20985;-75
2022/01/28 03:06:06;;;;;;;20.87;13.23;;;;;;;0.93;75.61;95378.17;1860283;77;22874;-74
2022/01/28 03:08:36;;;;;;;20.57;11.63;;;;;;;0.84;76.62;95378.92;1832553;78;21023;-73
2022/01/28 03:16:16;;;;;;;15.40;9.60;;;;;;;0.59;77.39;95372.90;1832653;78;21015;-75
2022/01/28 03:18:50;;;;;;;16.37;9.40;;;;;;;0.55;77.43;95373.25;1832312;78;20980;-76
2022/01/28 03:23:59;;;;;;;18.80;9.87;;;;;;;0.57;76.73;95362.48;1832240;78;21516;-75
2022/01/28 03:26:28;;;;;;;19.17;11.70;;;;;;;0.55;77.03;95369.36;1832267;78;20960;-75
2022/01/28 03:28:54;;;;;;;15.63;9.37;;;;;;;0.51;77.10;95378.40;1832532;78;20976;-76
2022/01/28 03:31:21;;;;;;;17.33;10.20;;;;;;;0.55;77.01;95373.69;1832474;78;20984;-76
2022/01/28 03:33:47;;;;;;;23.77;13.37;;;;;;;0.56;77.20;95358.14;1832396;78;21027;-75
2022/01/28 03:36:14;;;;;;;18.43;10.17;;;;;;;0.53;77.13;95354.21;1832340;78;20996;-75
2022/01/28 03:38:43;;;;;;;21.57;12.03;;;;;;;0.54;77.17;95346.86;1832227;78;20960;-76
2022/01/28 03:41:16;;;;;;;22.57;12.53;;;;;;;0.51;77.28;95343.35;1832405;78;21011;-75
2022/01/28 03:43:46;;;;;;;;;;;;;;;0.46;77.37;95358.85;1835272;78;20992;-76
2022/01/28 03:46:14;;;;;;;16.67;9.73;;;;;;;0.41;77.03;95348.39;1832266;78;20105;-75
2022/01/28 03:48:43;;;;;;;23.03;12.80;;;;;;;0.42;76.69;95337.14;1832522;78;21062;-75
2022/01/28 03:51:09;;;;;;;22.30;13.40;;;;;;;0.37;76.17;95328.84;1832459;78;21007;-75
2022/01/28 03:53:36;;;;;;;20.67;11.57;;;;;;;0.30;76.31;95332.17;1832318;78;21023;-75
2022/01/28 03:56:03;;;;;;;28.47;15.33;;;;;;;0.14;76.31;95318.95;1832462;78;20975;-75
2022/01/28 03:58:29;;;;;;;25.03;13.30;;;;;;;0.05;76.49;95309.73;1832176;78;21031;-75
2022/01/28 04:00:57;;;;;;;22.07;11.23;;;;;;;-0.01;76.62;95313.08;1832524;78;21026;-75
2022/01/28 04:11:28;;;;;;;23.73;13.10;;;;;;;-0.26;76.86;95327.75;1831850;78;20972;-76
2022/01/28 04:13:50;;;;;;;29.33;14.77;;;;;;;-0.35;76.95;95341.83;1827648;78;21012;-76
2022/01/28 04:16:31;;;;;;;27.47;14.67;;;;;;;-0.40;77.14;95358.61;1831478;78;20968;-76
2022/01/28 04:18:47;;;;;;;27.47;14.37;;;;;;;-0.48;77.63;95364.94;1828820;78;21007;-75
2022/01/28 04:21:14;;;;;;;28.80;15.57;;;;;;;-0.55;77.76;95376.02;1831620;78;21474;-71
2022/01/28 04:23:41;;;;;;;27.73;15.63;;;;;;;-0.58;78.13;95377.66;1831706;78;21011;-70
2022/01/28 04:26:07;;;;;;;29.30;14.80;;;;;;;-0.57;78.38;95386.77;1831723;78;21003;-71
2022/01/28 04:28:34;;;;;;;25.23;13.07;;;;;;;-0.57;78.82;95388.06;1831076;78;21083;-70
2022/01/28 04:31:00;;;;;;;21.17;11.23;;;;;;;-0.56;79.04;95401.89;1831777;78;20999;-70
2022/01/28 04:33:29;;;;;;;25.07;13.60;;;;;;;-0.57;79.39;95400.16;1831763;78;21015;-71
2022/01/28 04:35:56;;;;;;;26.23;12.50;;;;;;;-0.53;79.41;95408.03;1831837;78;21512;-71
2022/01/28 04:41:24;;;;;;;27.03;14.00;;;;;;;-0.53;79.59;95401.95;1831701;78;21016;-71
2022/01/28 04:43:30;;;;;;;23.90;13.30;;;;;;;-0.51;79.65;95408.91;1823132;78;21496;-71
2022/01/28 04:46:42;;;;;;;30.20;14.90;;;;;;;-0.50;79.72;95406.80;1830550;78;21501;-71
2022/01/28 04:48:33;;;;;;;24.77;13.40;;;;;;;-0.49;79.90;95403.77;1817068;78;21492;-71
2022/01/28 05:01:30;;;;;;;18.90;11.37;;;;;;;-0.14;80.18;95385.03;1831702;78;20968;-71
2022/01/28 05:06:47;;;;;;;17.17;9.33;;;;;;;-0.03;79.85;95373.12;1779716;80;21031;-71
2022/01/28 05:14:51;;;;;;;16.40;8.27;;;;;;;0.02;79.59;95368.02;1834946;78;21014;-71
2022/01/28 05:23:06;;;;;;;20.50;9.78;;;;;;;-0.04;79.69;95380.47;1830468;78;21483;-71
2022/01/28 05:27:18;;;;;;;14.10;7.03;;;;;;;-0.02;80.19;95398.66;1834747;78;20985;-71
2022/01/28 05:29:45;;;;;;;20.10;11.57;;;;;;;-0.03;80.41;95415.05;1804686;78;20982;-71
2022/01/28 05:32:12;;;;;;;13.93;7.30;;;;;;;-0.06;80.41;95434.02;1834752;78;21014;-70
2022/01/28 05:34:40;;;;;;;19.73;10.97;;;;;;;-0.05;80.37;95404.66;1834803;78;21490;-71
2022/01/28 05:37:08;;;;;;;19.37;11.57;;;;;;;-0.09;80.70;95408.03;1834828;78;21474;-70
2022/01/28 05:39:35;;;;;;;17.17;8.93;;;;;;;-0.06;80.75;95415.86;1834816;78;21487;-71
2022/01/28 05:42:03;;;;;;;16.50;9.77;;;;;;;-0.04;80.76;95420.66;1834675;78;20978;-70
2022/01/28 05:44:30;;;;;;;16.87;8.97;;;;;;;-0.01;80.68;95403.86;1835211;78;21049;-70
2022/01/28 05:47:01;;;;;;;12.30;7.43;;;;;;;0.04;80.46;95421.23;1834988;78;21329;-71
2022/01/28 05:49:24;;;;;;;14.30;7.03;;;;;;;0.04;80.59;95403.95;1834011;78;21545;-71
2022/01/28 05:51:51;;;;;;;17.63;9.47;;;;;;;0.06;80.92;95425.61;1834846;78;21005;-71
2022/01/28 05:54:17;;;;;;;17.40;9.47;;;;;;;0.08;80.79;95413.55;1834536;78;21110;-70
2022/01/28 05:56:44;;;;;;;14.60;8.33;;;;;;;0.07;81.08;95399.23;1834844;78;21432;-71
2022/01/28 05:59:10;;;;;;;12.40;7.60;;;;;;;0.12;81.18;95415.33;1834845;78;20998;-71
2022/01/28 06:01:37;;;;;;;14.77;7.40;;;;;;;0.08;81.38;95421.33;1834128;78;20979;-70
2022/01/28 06:04:04;;;;;;;15.03;7.93;;;;;;;0.03;81.68;95406.10;1834388;78;21038;-69
2022/01/28 06:06:32;;;;;;;19.33;11.53;;;;;;;0.00;82.11;95396.97;1837903;78;21007;-70
2022/01/28 06:08:59;;;;;;;14.90;8.10;;;;;;;0.02;81.95;95396.55;1841107;78;21027;-73
2022/01/28 06:11:26;;;;;;;12.43;6.73;;;;;;;-0.04;82.37;95403.80;1839254;78;21492;-72
2022/01/28 06:13:52;;;;;;;18.37;11.00;;;;;;;-0.04;82.59;95414.18;1839913;78;21015;-72
2022/01/28 06:16:20;;;;;;;18.97;11.63;;;;;;;0.00;82.60;95419.02;1839530;78;21069;-73
2022/01/28 06:18:46;;;;;;;16.57;9.07;;;;;;;-0.02;82.52;95417.69;1840093;78;21501;-76
2022/01/28 06:21:13;;;;;;;15.13;8.93;;;;;;;-0.06;82.75;95415.00;1840685;78;20987;-75
2022/01/28 06:23:39;;;;;;;14.33;8.23;;;;;;;-0.04;82.76;95422.39;1840588;78;21010;-78
2022/01/28 06:26:06;;;;;;;19.00;10.97;;;;;;;-0.09;83.04;95416.24;1840684;78;21040;-80
2022/01/28 06:28:32;;;;;;;15.80;8.33;;;;;;;-0.12;83.28;95427.43;1838887;78;21097;-81
2022/01/28 06:30:59;;;;;;;13.53;7.50;;;;;;;-0.09;83.17;95443.47;1838399;78;21006;-79
2022/01/28 06:33:26;;;;;;;21.63;11.70;;;;;;;-0.09;83.25;95450.82;1839105;78;20991;-75
2022/01/28 06:35:53;;;;;;;17.90;9.33;;;;;;;-0.06;83.28;95455.20;1840624;78;20955;-79
2022/01/28 06:38:20;;;;;;;13.57;8.13;;;;;;;-0.05;83.24;95457.83;1839129;78;21113;-76
2022/01/28 06:40:48;;;;;;;13.50;8.07;;;;;;;-0.06;83.33;95459.09;1839212;78;21487;-77
2022/01/28 06:43:16;;;;;;;17.90;9.97;;;;;;;-0.07;83.14;95459.52;1839406;78;21008;-78
2022/01/28 06:45:43;;;;;;;14.80;9.13;;;;;;;-0.07;83.03;95457.34;1840671;78;20983;-80
2022/01/28 06:48:11;;;;;;;15.17;8.43;;;;;;;-0.05;83.10;95472.09;1839975;78;21047;-79
2022/01/28 06:50:42;;;;;;;18.47;9.73;;;;;;;-0.08;83.32;95485.41;1838737;78;21077;-79
2022/01/28 06:53:10;;;;;;;18.57;11.60;;;;;;;0.00;83.17;95464.41;1839523;78;21524;-78
2022/01/28 06:55:37;;;;;;;19.37;10.47;;;;;;;0.01;83.16;95463.98;1839295;78;21496;-76
2022/01/28 06:58:05;;;;;;;21.80;12.17;;;;;;;0.04;83.16;95447.17;1839827;78;20983;-79
2022/01/28 07:00:37;;;;;;;18.30;10.30;;;;;;;0.04;83.20;95445.88;1839941;78;21065;-77
2022/01/28 07:03:08;;;;;;;14.37;8.90;;;;;;;0.04;83.17;95444.16;1840230;78;21488;-75
2022/01/28 07:05:35;;;;;;;12.90;7.67;;;;;;;0.08;83.23;95439.48;1837172;78;21019;-83
2022/01/28 07:08:02;;;;;;;15.03;7.80;;;;;;;-0.02;83.57;95447.52;1833667;78;21109;-74
2022/01/28 07:10:29;;;;;;;15.37;8.50;;;;;;;-0.06;83.77;95441.80;1834048;78;21031;-71
2022/01/28 07:12:55;;;;;;;17.70;9.93;;;;;;;-0.01;83.49;95440.59;1834588;78;21034;-75
2022/01/28 07:15:25;;;;;;;18.10;9.83;;;;;;;-0.10;83.56;95442.61;1834227;78;21078;-74
2022/01/28 07:18:00;;;;;;;15.23;8.80;;;;;;;-0.01;83.51;95445.78;1834414;78;21007;-74
2022/01/28 07:20:29;;;;;;;18.60;9.60;;;;;;;0.04;83.25;95454.53;1834506;78;21022;-75
2022/01/28 07:22:57;;;;;;;14.23;8.63;;;;;;;0.08;83.34;95454.19;1834373;78;21090;-75
2022/01/28 07:25:23;;;;;;;13.27;8.70;;;;;;;0.18;83.03;95471.25;1834205;78;21061;-76
2022/01/28 07:27:50;;;;;;;13.90;7.30;;;;;;;0.22;82.69;95461.79;1833789;78;21023;-74
2022/01/28 07:30:16;;;;;;;13.43;7.67;;;;;;;0.26;82.46;95462.73;1834388;78;21014;-74
2022/01/28 07:32:43;;;;;;;11.60;6.67;;;;;;;0.26;82.21;95482.20;1831263;78;21044;-73
2022/01/28 07:35:10;;;;;;;15.33;9.67;;;;;;;0.30;82.02;95475.77;1833039;78;21006;-74
2022/01/28 07:37:37;;;;;;;14.27;8.80;;;;;;;0.30;81.87;95478.80;1833476;78;21636;-74
2022/01/28 07:40:05;;;;;;;13.27;7.83;;;;;;;0.35;81.59;95495.33;1833989;78;21019;-73
2022/01/28 07:42:34;;;;;;;13.93;8.30;;;;;;;0.42;81.41;95484.22;1833687;78;21015;-74
2022/01/28 07:45:00;;;;;;;9.43;6.53;;;;;;;0.52;81.06;95500.41;1833614;78;20991;-74
2022/01/28 07:47:27;;;;;;;10.90;6.80;;;;;;;0.53;80.76;95496.09;1834540;78;21053;-73
2022/01/28 07:49:54;;;;;;;13.63;8.40;;;;;;;0.53;80.69;95500.89;1829337;78;21051;-73
2022/01/28 07:52:20;;;;;;;9.43;5.77;;;;;;;0.58;80.57;95491.45;1760613;81;21065;-76
2022/01/28 07:54:49;;;;;;;15.43;8.27;;;;;;;0.54;80.15;95487.05;1766807;81;21049;-78
2022/01/28 07:57:16;;;;;;;12.93;7.70;;;;;;;0.56;79.68;95487.95;1766589;81;21029;-74
2022/01/28 07:59:42;;;;;;;10.93;6.30;;;;;;;0.58;79.50;95476.28;1767282;81;21037;-76
2022/01/28 08:02:09;;;;;;;8.90;5.23;;;;;;;0.68;79.01;95466.94;1766757;81;21010;-75
2022/01/28 08:04:38;;;;;;;10.37;6.53;;;;;;;0.77;78.15;95474.89;1738332;81;21630;-76
2022/01/28 08:07:04;;;;;;;8.33;5.20;;;;;;;0.81;77.99;95474.98;1757224;81;21070;-73
2022/01/28 08:09:31;;;;;;;9.47;5.90;;;;;;;0.89;77.00;95464.71;1752467;82;21006;-71
2022/01/28 08:11:57;;;;;;;10.47;5.30;;;;;;;0.98;77.01;95484.36;1761790;81;21054;-72
2022/01/28 08:14:24;;;;;;;6.27;4.17;;;;;;;1.09;76.70;95470.23;1761076;81;21066;-71
2022/01/28 08:16:51;;;;;;;10.40;6.30;;;;;;;1.09;75.63;95452.05;1761246;81;21587;-73
2022/01/28 08:19:17;;;;;;;10.37;6.27;;;;;;;1.26;74.69;95467.87;1751232;81;21532;-70
2022/01/28 08:21:43;;;;;;;9.93;6.27;;;;;;;1.33;75.08;95468.84;1778424;81;21043;-71
2022/01/28 08:24:10;;;;;;;13.23;6.67;;;;;;;1.56;75.29;95462.23;1779421;81;21572;-73
2022/01/28 08:26:36;;;;;;;9.13;5.43;;;;;;;1.66;74.06;95456.34;1778655;81;21030;-75
2022/01/28 08:29:05;;;;;;;8.57;5.43;;;;;;;1.75;73.11;95471.18;1779774;81;21006;-74
2022/01/28 08:31:32;;;;;;;8.20;4.90;;;;;;;1.75;72.53;95467.28;1778486;80;21102;-72
2022/01/28 08:34:00;;;;;;;8.87;6.03;;;;;;;1.78;72.80;95479.45;1779657;80;21026;-71
2022/01/28 08:36:27;;;;;;;10.63;6.30;;;;;;;1.71;72.27;95483.69;1779905;81;21389;-75
2022/01/28 08:38:55;;;;;;;6.57;4.40;;;;;;;1.68;72.77;95494.92;1742776;81;21033;-70
2022/01/28 08:41:23;;;;;;;8.03;5.70;;;;;;;1.62;72.22;95497.45;1762858;81;21042;-71
2022/01/28 08:43:51;;;;;;;7.50;5.30;;;;;;;1.67;72.29;95500.98;1762207;81;21077;-72
2022/01/28 08:46:18;;;;;;;8.57;5.40;;;;;;;1.70;71.56;95504.06;1762191;81;21164;-69
2022/01/28 08:48:45;;;;;;;6.37;3.30;;;;;;;1.77;71.90;95516.73;1755337;81;21284;-69
2022/01/28 08:51:12;;;;;;;8.80;5.47;;;;;;;1.69;70.87;95512.30;1748739;81;21023;-70
2022/01/28 08:53:39;;;;;;;6.20;4.10;;;;;;;1.63;71.29;95510.89;1736823;82;21172;-70
2022/01/28 08:56:06;;;;;;;9.03;4.90;;;;;;;1.52;71.66;95513.77;1767865;81;21123;-75
2022/01/28 08:58:33;;;;;;;6.63;4.57;;;;;;;1.56;71.91;95532.45;1765990;81;21072;-73
2022/01/28 09:00:59;;;;;;;6.60;3.90;;;;;;;1.56;71.59;95529.85;1756415;81;20946;-69
2022/01/28 09:03:25;;;;;;;6.40;4.17;;;;;;;1.55;71.23;95541.55;1743150;81;20991;-71
2022/01/28 09:05:52;;;;;;;9.07;5.50;;;;;;;1.48;71.47;95540.14;1769248;81;20918;-69
2022/01/28 09:08:19;;;;;;;8.30;6.10;;;;;;;1.42;71.63;95537.45;1772935;80;21458;-71
2022/01/28 09:10:56;;;;;;;6.47;4.03;;;;;;;1.41;71.84;95547.42;1743605;82;21023;-71
2022/01/28 09:13:22;;;;;;;4.27;2.70;;;;;;;1.48;71.15;95549.23;1743017;82;21035;-73
2022/01/28 09:15:50;;;;;;;7.43;5.07;;;;;;;1.57;71.02;95547.66;1767782;81;21093;-72
2022/01/28 09:18:19;;;;;;;8.80;5.37;;;;;;;1.64;70.91;95556.00;1769086;81;21011;-74
2022/01/28 09:20:47;;;;;;;7.50;4.47;;;;;;;1.68;71.25;95553.44;1761485;81;21018;-73
2022/01/28 09:23:15;;;;;;;8.00;6.37;;;;;;;1.66;70.98;95547.77;1764562;81;21311;-74
2022/01/28 09:25:42;;;;;;;9.30;5.40;;;;;;;1.82;71.21;95552.36;1759549;81;21052;-72
2022/01/28 09:28:09;;;;;;;5.90;4.73;;;;;;;1.88;70.81;95554.17;1768520;81;21567;-74
2022/01/28 09:30:36;;;;;;;9.20;6.03;;;;;;;1.93;70.61;95560.31;1769436;81;20979;-78
2022/01/28 09:33:04;;;;;;;8.87;4.93;;;;;;;1.96;70.42;95562.95;1758898;81;21041;-73
2022/01/28 09:35:31;;;;;;;9.27;5.50;;;;;;;1.95;70.33;95557.31;1761878;81;21964;-74
2022/01/28 09:37:57;;;;;;;8.07;5.57;;;;;;;2.01;70.18;95552.17;1745255;82;21069;-77
2022/01/28 09:40:24;;;;;;;10.17;6.07;;;;;;;2.05;70.34;95560.48;1761768;81;21061;-73
2022/01/28 09:42:52;;;;;;;10.03;6.10;;;;;;;2.11;70.29;95555.78;1752979;81;21057;-73
2022/01/28 09:45:23;;;;;;;8.87;5.83;;;;;;;2.13;69.61;95553.64;1760680;81;21022;-73
2022/01/28 09:47:53;;;;;;;9.80;6.27;;;;;;;2.08;69.76;95562.25;1756974;81;21062;-73
2022/01/28 09:50:46;;;;;;;9.13;5.90;;;;;;;2.14;69.69;95565.82;1741757;82;21570;-77
2022/01/28 09:53:15;;;;;;;7.70;5.00;;;;;;;2.20;69.41;95570.23;1739098;82;21057;-75
2022/01/28 09:55:45;;;;;;;8.13;5.30;;;;;;;2.21;69.73;95561.55;1739133;82;20969;-76
2022/01/28 09:58:11;;;;;;;10.63;6.57;;;;;;;2.21;69.47;95565.45;1756525;80;21097;-76
2022/01/28 10:00:38;;;;;;;7.43;5.13;;;;;;;2.14;69.37;95566.22;1743851;82;21499;-76
2022/01/28 10:03:11;;;;;;;9.97;6.10;;;;;;;2.21;69.22;95556.78;1751400;82;20994;-81
2022/01/28 10:05:50;;;;;;;8.30;4.92;;;;;;;2.30;69.08;95564.28;1752126;82;21010;-77
2022/01/28 10:08:22;;;;;;;8.17;5.40;;;;;;;2.43;69.07;95556.63;1752085;82;21011;-76
2022/01/28 10:10:59;;;;;;;19.13;13.80;;;;;;;2.70;68.86;95551.73;1752197;81;21037;-77
2022/01/28 10:13:47;;;;;;;9.43;5.93;;;;;;;2.99;67.38;95545.94;1752326;81;20997;-78
2022/01/28 10:16:22;;;;;;;9.77;6.93;;;;;;;3.19;66.21;95553.95;1752289;81;21499;-78
2022/01/28 10:18:53;;;;;;;6.77;4.17;;;;;;;3.14;66.05;95538.27;1752313;82;21049;-77
2022/01/28 10:21:43;;;;;;;7.23;4.57;;;;;;;3.19;65.54;95533.97;1751946;82;20998;-78
2022/01/28 10:24:15;;;;;;;8.00;5.27;;;;;;;3.07;66.01;95529.94;1751719;80;21049;-79
2022/01/28 10:27:17;;;;;;;5.07;3.27;;;;;;;2.86;65.47;95536.27;1750355;80;20993;-77
2022/01/28 10:29:40;;;;;;;7.33;5.20;;;;;;;2.66;65.75;95530.41;1746085;82;21050;-78
2022/01/28 10:32:15;;;;;;;8.70;6.70;;;;;;;2.58;66.30;95530.76;1752237;82;21455;-78
2022/01/28 10:34:50;;;;;;;6.03;4.17;;;;;;;2.94;67.57;95524.17;1752282;82;21065;-77
2022/01/28 10:37:21;;;;;;;7.20;4.60;;;;;;;3.98;63.50;95526.70;1752314;82;21028;-77
2022/01/28 10:40:10;;;;;;;5.67;3.97;;;;;;;3.74;62.17;95527.00;1752311;82;21024;-78
2022/01/28 10:42:50;;;;;;;7.33;4.77;;;;;;;3.33;62.91;95539.31;1752319;82;21419;-77
2022/01/28 10:45:16;;;;;;;7.27;6.33;;;;;;;3.15;63.84;95537.42;1750426;81;21053;-78
2022/01/28 10:47:51;;;;;;;6.13;5.37;;;;;;;3.06;64.63;95516.47;1751532;82;21033;-78
2022/01/28 10:50:33;;;;;;;7.67;4.83;;;;;;;3.18;64.24;95532.23;1751759;82;21014;-78
2022/01/28 10:53:13;;;;;;;6.03;4.17;;;;;;;4.09;62.43;95509.38;1750885;81;21033;-78
2022/01/28 10:55:50;;;;;;;8.23;3.97;;;;;;;5.01;59.48;95501.81;1751460;82;21037;-78
2022/01/28 10:58:20;;;;;;;4.67;3.23;;;;;;;4.86;57.88;95488.72;1751935;82;21485;-78
2022/01/28 11:00:50;;;;;;;6.13;4.03;;;;;;;4.32;58.49;95504.25;1752141;82;21558;-78
2022/01/28 11:03:24;;;;;;;5.40;3.50;;;;;;;3.81;59.72;95507.05;1752233;82;21018;-78
2022/01/28 11:05:47;;;;;;;5.70;4.20;;;;;;;3.42;60.53;95498.08;1751761;82;21073;-77
2022/01/28 11:08:15;;;;;;;5.33;3.53;;;;;;;3.31;61.64;95514.09;1752231;82;21006;-78
2022/01/28 11:10:43;;;;;;;5.73;4.03;;;;;;;3.22;61.17;95518.34;1752187;82;21527;-78
2022/01/28 11:13:10;;;;;;;7.83;4.90;;;;;;;3.04;61.98;95520.80;1752339;82;21026;-77
2022/01/28 11:15:37;;;;;;;5.33;3.63;;;;;;;2.91;62.88;95521.55;1752045;81;21032;-77
2022/01/28 11:18:07;;;;;;;6.43;3.93;;;;;;;2.81;62.87;95528.39;1752395;82;21527;-77
2022/01/28 11:20:51;;;;;;;4.87;3.27;;;;;;;2.80;62.82;95526.22;1752437;82;21041;-77
2022/01/28 11:23:49;;;;;;;4.57;3.70;;;;;;;2.67;63.57;95537.78;1752625;81;21022;-78
2022/01/28 11:26:24;;;;;;;5.47;4.00;;;;;;;3.10;62.65;95539.12;1752558;82;21014;-78
2022/01/28 11:29:02;;;;;;;6.23;3.90;;;;;;;3.52;61.33;95518.14;1752452;82;21527;-78
2022/01/28 11:31:51;;;;;;;4.77;3.93;;;;;;;3.73;60.52;95516.14;1751880;82;21511;-78
2022/01/28 11:34:27;;;;;;;6.10;3.90;;;;;;;4.12;59.91;95523.75;1752303;82;21543;-78
2022/01/28 11:37:06;;;;;;;4.27;3.17;;;;;;;4.23;58.75;95532.93;1752222;82;21061;-78
2022/01/28 11:39:45;;;;;;;5.33;3.77;;;;;;;4.39;58.12;95535.20;1749388;82;21026;-78
2022/01/28 11:42:29;;;;;;;6.00;3.90;;;;;;;4.55;58.29;95526.54;1751724;82;21571;-79
2022/01/28 11:44:59;;;;;;;5.53;3.80;;;;;;;4.60;58.08;95536.58;1746883;82;21534;-78
2022/01/28 11:47:35;;;;;;;9.53;6.03;;;;;;;4.37;58.02;95539.10;1752403;82;21132;-78
2022/01/28 11:50:18;;;;;;;6.83;4.67;;;;;;;4.11;59.42;95547.69;1752365;82;20978;-78
2022/01/28 11:52:51;;;;;;;4.85;3.40;;;;;;;4.17;59.79;95553.36;1757120;81;20985;-78
2022/01/28 11:55:26;;;;;;;5.97;4.60;;;;;;;4.00;59.38;95555.87;1775982;81;21542;-79
2022/01/28 11:58:09;;;;;;;5.70;4.40;;;;;;;3.87;60.13;95557.97;1775853;81;21005;-78
2022/01/28 12:00:44;;;;;;;4.55;3.27;;;;;;;3.77;60.85;95558.77;1775912;81;21033;-77
2022/01/28 12:03:21;;;;;;;3.80;2.53;;;;;;;3.71;60.70;95553.09;1775907;81;21025;-78
2022/01/28 12:06:01;;;;;;;5.20;3.77;;;;;;;3.39;61.42;95551.09;1775875;81;21013;-78
2022/01/28 12:08:30;;;;;;;6.67;4.33;;;;;;;3.33;61.89;95554.96;1770119;81;21045;-77
2022/01/28 12:11:00;;;;;;;5.60;4.40;;;;;;;3.30;62.23;95555.34;1775908;81;21013;-78
2022/01/28 12:14:04;;;;;;;7.53;4.70;;;;;;;3.34;62.44;95554.52;1775873;81;20981;-77
2022/01/28 12:16:30;;;;;;;7.23;4.83;;;;;;;3.39;62.22;95562.82;1772830;80;21065;-77
2022/01/28 12:18:58;;;;;;;7.30;4.40;;;;;;;3.34;62.17;95546.27;1775688;81;21491;-77
2022/01/28 12:21:30;;;;;;;5.37;3.93;;;;;;;3.34;61.82;95542.79;1775957;81;21510;-77
2022/01/28 12:24:22;;;;;;;6.80;4.40;;;;;;;3.34;62.61;95544.96;1776021;81;21021;-77
2022/01/28 12:27:07;;;;;;;8.37;4.97;;;;;;;3.34;62.41;95541.48;1775745;80;21064;-77
2022/01/28 12:29:39;;;;;;;6.47;4.77;;;;;;;3.35;62.60;95536.70;1775263;81;21056;-78
2022/01/28 12:32:06;;;;;;;8.23;5.17;;;;;;;3.42;62.24;95518.94;1772506;81;21006;-77
2022/01/28 12:34:33;;;;;;;9.07;5.73;;;;;;;3.44;62.39;95520.70;1776067;81;21053;-77
2022/01/28 12:37:03;;;;;;;6.90;4.73;;;;;;;3.34;62.41;95511.50;1775822;81;20991;-77
2022/01/28 12:39:33;;;;;;;6.57;3.93;;;;;;;3.20;62.93;95513.97;1775599;81;21017;-77
2022/01/28 12:42:08;;;;;;;5.03;3.53;;;;;;;3.20;63.06;95512.27;1775889;81;21049;-77
2022/01/28 12:44:35;;;;;;;5.90;4.05;;;;;;;3.34;62.90;95508.89;1775615;81;21027;-77
2022/01/28 12:47:09;;;;;;;8.40;5.73;;;;;;;3.24;62.74;95504.89;1775773;81;21002;-77
2022/01/28 12:49:41;;;;;;;5.47;4.03;;;;;;;3.42;62.12;95510.67;1776011;81;20998;-77
2022/01/28 12:52:09;;;;;;;7.67;5.17;;;;;;;3.52;62.03;95510.31;1774996;81;21017;-77
2022/01/28 12:54:43;;;;;;;6.80;4.97;;;;;;;3.49;61.74;95511.61;1762364;81;21038;-77
2022/01/28 12:57:14;;;;;;;7.87;4.10;;;;;;;3.54;62.10;95506.43;1762310;81;21074;-77
2022/01/28 12:59:45;;;;;;;5.63;4.07;;;;;;;3.58;61.61;95518.61;1761089;81;20997;-77
2022/01/28 13:02:12;;;;;;;8.10;6.47;;;;;;;3.58;61.55;95522.52;1751972;81;21079;-77
2022/01/28 13:10:29;;;;;;;7.67;4.40;;;;;;;3.50;61.96;95523.77;1751834;81;20983;-77
2022/01/28 13:13:07;;;;;;;5.67;4.37;;;;;;;3.32;61.71;95532.77;1751846;82;21460;-77
2022/01/28 13:15:34;;;;;;;5.57;3.57;;;;;;;3.17;62.61;95524.38;1751726;82;21046;-77
2022/01/28 13:18:03;;;;;;;5.93;4.03;;;;;;;2.98;62.71;95529.44;1751823;81;21542;-77
2022/01/28 13:20:41;;;;;;;13.23;7.70;;;;;;;3.01;63.36;95528.59;1751768;81;20983;-77
2022/01/28 13:23:11;;;;;;;4.50;3.70;;;;;;;3.08;62.79;95538.22;1751825;82;20990;-76
2022/01/28 13:25:39;;;;;;;4.40;3.23;;;;;;;2.89;63.35;95544.11;1751867;81;20959;-76
2022/01/28 13:28:15;;;;;;;6.13;4.77;;;;;;;2.84;63.50;95553.61;1751834;81;21073;-76
2022/01/28 13:30:45;;;;;;;6.47;3.27;;;;;;;2.95;63.88;95552.00;1751650;81;20971;-76
2022/01/28 13:33:11;;;;;;;6.47;5.17;;;;;;;3.00;63.86;95551.62;1748822;82;21062;-76
2022/01/28 13:35:39;;;;;;;4.47;3.80;;;;;;;3.06;63.79;95550.80;1751919;81;21034;-76